Time;durP1;ratioP1;P1;durP2;ratioP2;P2;SDS_P1;SDS_P2;PMS_P1;PMS_P2;Temp;Humidity;BMP_temperature;BMP_pressure;BME280_temperature;BME280_humidity;BME280_pressure;Samples;Min_cycle;Max_cycle;Signal;HPM_P1;HPM_P2
2022/04/13 00:01:00;;;;;;;10.00;6.15;;;12.30;99.90;;;;;;5113699;28;20398;-78
2022/04/13 00:03:26;;;;;;;11.43;5.78;;;12.20;99.90;;;;;;5113190;28;20489;-77
2022/04/13 00:05:52;;;;;;;9.65;5.60;;;12.20;99.90;;;;;;5113444;28;20062;-78
2022/04/13 00:08:18;;;;;;;6.93;5.35;;;12.10;99.90;;;;;;5114998;28;20040;-78
2022/04/13 00:10:44;;;;;;;7.18;4.88;;;12.10;99.90;;;;;;5113823;28;20399;-77
2022/04/13 00:13:10;;;;;;;13.52;5.55;;;12.00;99.90;;;;;;5114624;28;20048;-77
2022/04/13 00:15:37;;;;;;;8.88;5.00;;;12.00;99.90;;;;;;5113386;28;20209;-78
2022/04/13 00:18:07;;;;;;;7.72;5.40;;;11.90;99.90;;;;;;5109690;27;20423;-77
2022/04/13 00:20:34;;;;;;;10.10;6.93;;;11.90;99.90;;;;;;5109723;28;20483;-77
2022/04/13 00:22:59;;;;;;;13.23;7.50;;;11.90;99.90;;;;;;5113473;28;20043;-77
2022/04/13 00:25:25;;;;;;;18.25;7.63;;;11.90;99.90;;;;;;5112236;28;20464;-77
2022/04/13 00:27:51;;;;;;;12.02;7.95;;;11.90;99.90;;;;;;5114407;28;20031;-77
2022/04/13 00:30:17;;;;;;;14.82;7.85;;;11.90;99.90;;;;;;5113146;28;20399;-77
2022/04/13 00:32:43;;;;;;;11.48;7.78;;;12.00;99.90;;;;;;5112878;28;20535;-77
2022/04/13 00:35:09;;;;;;;14.20;7.90;;;12.00;99.90;;;;;;5113012;28;20380;-77
2022/04/13 00:37:38;;;;;;;16.33;7.68;;;12.00;99.90;;;;;;5095573;28;20379;-77
2022/04/13 00:40:04;;;;;;;10.35;7.40;;;12.00;99.90;;;;;;5112240;28;20051;-77
2022/04/13 00:42:30;;;;;;;17.67;8.02;;;12.00;99.90;;;;;;5095389;28;20048;-77
2022/04/13 00:44:56;;;;;;;12.15;7.55;;;12.00;99.90;;;;;;5113108;28;20040;-77
2022/04/13 00:47:22;;;;;;;12.68;8.02;;;11.90;99.90;;;;;;5112161;28;20059;-77
2022/04/13 00:49:48;;;;;;;16.02;8.27;;;11.90;99.90;;;;;;5113479;28;20055;-77
2022/04/13 00:52:15;;;;;;;13.07;8.80;;;11.90;99.90;;;;;;5112744;28;20048;-77
2022/04/13 00:54:45;;;;;;;14.88;8.35;;;11.90;99.90;;;;;;5111933;28;20443;-77
2022/04/13 00:57:13;;;;;;;12.75;8.52;;;11.90;99.90;;;;;;5112792;28;20044;-78
2022/04/13 00:59:39;;;;;;;12.10;7.65;;;11.80;99.90;;;;;;5111961;28;20103;-78
2022/04/13 01:02:07;;;;;;;13.95;9.30;;;11.80;99.90;;;;;;5113918;28;20046;-77
2022/04/13 01:04:35;;;;;;;12.63;7.65;;;11.80;99.90;;;;;;5113832;28;20615;-78
2022/04/13 01:07:03;;;;;;;12.35;9.00;;;11.80;99.90;;;;;;5129568;27;20394;-77
2022/04/13 01:09:30;;;;;;;12.07;7.45;;;11.80;99.90;;;;;;5110905;28;20040;-77
2022/04/13 01:11:55;;;;;;;15.75;9.85;;;11.80;99.90;;;;;;5112600;28;20039;-78
2022/04/13 01:14:21;;;;;;;19.25;9.98;;;11.80;99.90;;;;;;5094783;28;20054;-77
2022/04/13 01:16:47;;;;;;;14.57;9.52;;;11.80;99.90;;;;;;5111881;28;20044;-77
2022/04/13 01:19:16;;;;;;;18.70;9.55;;;11.90;99.90;;;;;;5112290;28;20122;-77
2022/04/13 01:21:52;;;;;;;19.95;10.80;;;11.90;99.90;;;;;;5113060;28;20074;-78
2022/04/13 01:24:19;;;;;;;15.27;11.43;;;11.90;99.90;;;;;;5112054;28;20043;-78
2022/04/13 01:26:45;;;;;;;15.13;10.93;;;11.90;99.90;;;;;;5112804;28;20039;-78
2022/04/13 01:29:12;;;;;;;20.48;11.85;;;11.90;99.90;;;;;;5111382;28;20437;-77
2022/04/13 01:31:38;;;;;;;15.57;10.90;;;11.90;99.90;;;;;;5113533;28;20054;-77
2022/04/13 01:34:05;;;;;;;14.90;10.38;;;11.80;99.90;;;;;;5095399;28;20079;-77
2022/04/13 01:36:33;;;;;;;14.27;10.57;;;11.80;99.90;;;;;;5109158;28;20036;-77
2022/04/13 01:39:00;;;;;;;21.15;11.63;;;11.80;99.90;;;;;;5113730;28;20052;-77
2022/04/13 01:41:26;;;;;;;27.60;11.27;;;11.80;99.90;;;;;;5112360;28;20501;-77
2022/04/13 01:43:52;;;;;;;18.05;11.57;;;11.80;99.90;;;;;;5111334;28;20363;-77
2022/04/13 01:46:18;;;;;;;19.13;11.32;;;11.80;99.90;;;;;;5113675;28;20107;-77
2022/04/13 01:48:43;;;;;;;21.58;11.75;;;11.80;99.90;;;;;;5113235;28;20127;-78
2022/04/13 01:51:09;;;;;;;21.67;12.85;;;11.80;99.90;;;;;;5112488;28;20044;-77
2022/04/13 01:53:35;;;;;;;16.25;10.95;;;11.80;99.90;;;;;;5113745;28;20040;-77
2022/04/13 01:56:01;;;;;;;19.50;12.15;;;11.80;99.90;;;;;;5091306;28;20047;-77
2022/04/13 01:58:27;;;;;;;15.88;11.38;;;11.80;99.90;;;;;;5121874;28;20119;-77
2022/04/13 02:00:56;;;;;;;19.83;11.93;;;11.80;99.90;;;;;;5113658;28;20158;-77
2022/04/13 02:03:23;;;;;;;17.27;11.68;;;11.80;99.90;;;;;;5112444;28;20119;-77
2022/04/13 02:05:52;;;;;;;18.90;12.45;;;11.80;99.90;;;;;;5115733;28;20051;-77
2022/04/13 02:08:18;;;;;;;16.95;11.57;;;11.80;99.90;;;;;;5115805;28;20054;-77
2022/04/13 02:10:44;;;;;;;14.95;11.30;;;11.70;99.90;;;;;;5114869;28;20122;-77
2022/04/13 02:13:10;;;;;;;16.42;11.70;;;11.70;99.90;;;;;;5116796;28;20486;-77
2022/04/13 02:15:36;;;;;;;23.15;12.63;;;11.70;99.90;;;;;;5117057;28;20047;-78
2022/04/13 02:18:02;;;;;;;18.33;11.68;;;11.70;99.90;;;;;;5116586;28;20047;-77
2022/04/13 02:20:28;;;;;;;21.27;13.32;;;11.60;99.90;;;;;;5098830;28;20047;-77
2022/04/13 02:22:54;;;;;;;25.48;13.20;;;11.60;99.90;;;;;;5115707;28;20040;-78
2022/04/13 02:25:19;;;;;;;22.50;13.77;;;11.60;99.90;;;;;;5115856;28;20032;-78
2022/04/13 02:27:45;;;;;;;21.15;13.18;;;11.50;99.90;;;;;;5114913;28;20042;-77
2022/04/13 02:30:11;;;;;;;19.73;12.77;;;11.50;99.90;;;;;;5116261;28;20047;-78
2022/04/13 02:32:43;;;;;;;22.73;13.60;;;11.50;99.90;;;;;;5116107;27;20052;-78
2022/04/13 02:35:10;;;;;;;19.52;13.07;;;11.50;99.90;;;;;;5116726;28;20034;-78
2022/04/13 02:37:35;;;;;;;17.83;13.32;;;11.50;99.90;;;;;;5095068;28;20051;-77
2022/04/13 02:40:02;;;;;;;22.17;13.80;;;11.50;99.90;;;;;;5109469;28;20042;-78
2022/04/13 02:42:32;;;;;;;21.00;13.93;;;11.50;99.90;;;;;;5115685;28;20391;-78
2022/04/13 02:44:58;;;;;;;18.77;13.70;;;11.50;99.90;;;;;;5116233;28;20198;-78
2022/04/13 02:47:24;;;;;;;22.13;14.40;;;11.50;99.90;;;;;;5115548;28;20035;-78
2022/04/13 02:49:50;;;;;;;23.52;12.90;;;11.50;99.90;;;;;;5115951;28;20502;-78
2022/04/13 02:52:16;;;;;;;21.35;12.77;;;11.50;99.90;;;;;;5114725;28;20051;-77
2022/04/13 02:54:41;;;;;;;21.25;13.38;;;11.50;99.90;;;;;;5114748;28;20130;-78
2022/04/13 02:57:07;;;;;;;20.80;14.45;;;11.40;99.90;;;;;;5116200;28;20039;-77
2022/04/13 02:59:33;;;;;;;24.75;12.98;;;11.40;99.90;;;;;;5114393;28;20047;-78
2022/04/13 03:01:59;;;;;;;22.58;14.13;;;11.40;99.90;;;;;;5114178;28;20138;-77
2022/04/13 03:04:24;;;;;;;25.15;13.73;;;11.40;99.90;;;;;;5115216;28;20093;-77
2022/04/13 03:06:50;;;;;;;18.42;13.02;;;11.40;99.90;;;;;;5113885;28;20471;-77
2022/04/13 03:09:16;;;;;;;21.92;12.80;;;11.40;99.90;;;;;;5115838;28;20039;-77
2022/04/13 03:11:42;;;;;;;21.77;13.27;;;11.40;99.90;;;;;;5114301;28;20124;-77
2022/04/13 03:14:07;;;;;;;23.50;12.85;;;11.30;99.90;;;;;;5115365;28;20368;-77
2022/04/13 03:16:33;;;;;;;20.23;13.43;;;11.30;99.90;;;;;;5096774;28;20056;-77
2022/04/13 03:19:00;;;;;;;19.27;11.75;;;11.30;99.90;;;;;;5114615;28;20506;-77
2022/04/13 03:21:27;;;;;;;28.27;13.80;;;11.20;99.90;;;;;;5113999;28;20091;-77
2022/04/13 03:23:53;;;;;;;21.08;12.43;;;11.20;99.90;;;;;;5097358;28;20044;-77
2022/04/13 03:26:18;;;;;;;16.52;12.82;;;11.10;99.90;;;;;;5113946;28;20121;-77
2022/04/13 03:28:44;;;;;;;22.30;12.82;;;11.10;99.90;;;;;;5130759;27;20035;-77
2022/04/13 03:31:10;;;;;;;19.30;12.10;;;11.00;99.90;;;;;;5122267;27;20439;-77
2022/04/13 03:33:36;;;;;;;21.10;13.02;;;11.00;99.90;;;;;;5095353;28;20063;-77
2022/04/13 03:36:02;;;;;;;19.27;13.63;;;11.00;99.90;;;;;;5111323;28;20051;-77
2022/04/13 03:38:28;;;;;;;26.08;14.13;;;10.90;99.90;;;;;;5114569;28;20039;-77
2022/04/13 03:40:53;;;;;;;30.42;13.77;;;10.90;99.90;;;;;;5115366;28;20105;-77
2022/04/13 03:43:19;;;;;;;20.88;13.80;;;10.80;99.90;;;;;;5096479;28;20035;-77
2022/04/13 03:45:45;;;;;;;18.98;13.60;;;10.90;99.90;;;;;;5113769;28;20039;-77
2022/04/13 03:48:10;;;;;;;26.40;13.23;;;10.80;99.90;;;;;;5114039;28;20075;-77
2022/04/13 03:50:36;;;;;;;24.77;14.60;;;10.80;99.90;;;;;;5113871;28;20048;-77
2022/04/13 03:53:02;;;;;;;25.50;14.10;;;10.80;99.90;;;;;;5115544;28;20047;-77
2022/04/13 03:55:28;;;;;;;21.98;14.15;;;10.80;99.90;;;;;;5096273;28;20044;-77
2022/04/13 03:57:53;;;;;;;28.88;13.65;;;10.80;99.90;;;;;;5114730;28;20513;-77
2022/04/13 04:00:19;;;;;;;19.17;13.32;;;10.70;99.90;;;;;;5113662;28;20097;-77
2022/04/13 04:02:45;;;;;;;19.98;12.95;;;10.70;99.90;;;;;;5114394;28;20367;-77
2022/04/13 04:05:12;;;;;;;27.17;14.63;;;10.70;99.90;;;;;;5096248;28;20055;-77
2022/04/13 04:07:38;;;;;;;26.58;14.68;;;10.70;99.90;;;;;;5113737;28;20101;-77
2022/04/13 04:10:05;;;;;;;21.40;14.38;;;10.70;99.90;;;;;;5112941;28;20481;-77
2022/04/13 04:12:36;;;;;;;25.77;15.48;;;10.70;99.90;;;;;;5112623;28;20036;-77
2022/04/13 04:15:03;;;;;;;23.33;13.70;;;10.70;99.90;;;;;;5114755;28;20074;-77
2022/04/13 04:17:28;;;;;;;23.08;13.55;;;10.60;99.90;;;;;;5114076;28;20062;-77
2022/04/13 04:19:54;;;;;;;19.02;12.13;;;10.60;99.90;;;;;;5114581;28;20032;-77
2022/04/13 04:22:24;;;;;;;18.77;11.75;;;10.60;99.90;;;;;;5114642;28;20043;-77
2022/04/13 04:24:50;;;;;;;21.38;14.50;;;10.50;99.90;;;;;;5113821;28;20069;-77
2022/04/13 04:27:15;;;;;;;19.23;12.85;;;10.50;99.90;;;;;;5113151;28;20036;-77
2022/04/13 04:29:41;;;;;;;23.35;15.35;;;10.50;99.90;;;;;;5114683;28;20390;-77
2022/04/13 04:32:07;;;;;;;28.85;15.02;;;10.50;99.90;;;;;;5112068;28;20572;-77
2022/04/13 04:34:33;;;;;;;25.20;15.43;;;10.50;99.90;;;;;;5096320;28;20479;-77
2022/04/13 04:36:59;;;;;;;24.58;15.60;;;10.50;99.90;;;;;;5114142;28;20039;-77
2022/04/13 04:39:25;;;;;;;19.85;13.15;;;10.50;99.90;;;;;;5112311;28;20443;-77
2022/04/13 04:41:52;;;;;;;24.17;12.23;;;10.50;99.90;;;;;;5114216;28;20086;-77
2022/04/13 04:44:18;;;;;;;33.20;15.60;;;10.50;99.90;;;;;;5094140;28;20072;-77
2022/04/13 04:46:43;;;;;;;31.15;17.30;;;10.50;99.90;;;;;;5091790;28;20047;-77
2022/04/13 04:49:09;;;;;;;28.50;17.15;;;10.50;99.90;;;;;;5109732;28;20097;-77
2022/04/13 04:51:35;;;;;;;31.10;20.23;;;10.50;99.90;;;;;;5112610;28;20044;-77
2022/04/13 04:54:02;;;;;;;26.90;17.50;;;10.60;99.90;;;;;;5112113;28;20081;-77
2022/04/13 04:56:29;;;;;;;29.70;19.38;;;10.70;99.90;;;;;;5112368;28;20380;-78
2022/04/13 04:58:56;;;;;;;31.77;18.35;;;10.70;99.90;;;;;;5111699;28;20491;-77
2022/04/13 05:01:22;;;;;;;32.63;18.67;;;10.80;99.90;;;;;;5113718;28;20078;-77
2022/04/13 05:03:49;;;;;;;31.63;18.73;;;10.80;99.90;;;;;;5112828;28;20067;-78
2022/04/13 05:06:23;;;;;;;38.42;18.27;;;10.80;99.90;;;;;;5112149;28;20058;-78
2022/04/13 05:08:50;;;;;;;31.35;18.40;;;10.90;99.90;;;;;;5113630;28;20039;-78
2022/04/13 05:11:16;;;;;;;28.48;17.27;;;10.90;99.90;;;;;;5112653;28;20058;-78
2022/04/13 05:13:45;;;;;;;32.60;19.70;;;10.90;99.90;;;;;;5111753;28;20047;-77
2022/04/13 05:16:12;;;;;;;29.08;19.17;;;10.90;99.90;;;;;;5112772;28;20126;-77
2022/04/13 05:18:39;;;;;;;32.63;18.52;;;11.00;99.90;;;;;;5113173;28;20483;-78
2022/04/13 05:21:05;;;;;;;26.80;18.67;;;11.00;99.90;;;;;;5112003;28;20487;-77
2022/04/13 05:23:30;;;;;;;33.45;20.00;;;11.00;99.90;;;;;;5113528;28;20088;-78
2022/04/13 05:25:56;;;;;;;33.78;19.65;;;11.00;99.90;;;;;;5112289;28;20055;-78
2022/04/13 05:28:22;;;;;;;28.90;19.15;;;11.00;99.90;;;;;;5128865;28;20051;-77
2022/04/13 05:30:48;;;;;;;30.73;19.30;;;11.00;99.90;;;;;;5113547;28;20406;-77
2022/04/13 05:33:13;;;;;;;33.47;18.92;;;11.00;99.90;;;;;;5113926;28;20040;-77
2022/04/13 05:35:40;;;;;;;28.92;18.98;;;11.00;99.90;;;;;;5112732;28;20164;-76
2022/04/13 05:38:06;;;;;;;28.25;18.90;;;11.00;99.90;;;;;;5112368;28;20097;-76
2022/04/13 05:40:33;;;;;;;29.92;19.58;;;11.00;99.90;;;;;;5116219;28;20059;-76
2022/04/13 05:42:59;;;;;;;32.53;18.70;;;11.10;99.90;;;;;;5116675;28;20046;-78
2022/04/13 05:45:25;;;;;;;28.90;19.77;;;11.10;99.90;;;;;;5116785;28;20051;-78
2022/04/13 05:47:51;;;;;;;32.58;19.30;;;11.20;99.90;;;;;;5116362;28;20043;-77
2022/04/13 05:50:16;;;;;;;32.08;18.10;;;11.20;99.90;;;;;;5115287;28;20160;-78
2022/04/13 05:52:43;;;;;;;31.23;18.98;;;11.30;99.90;;;;;;5117304;28;20122;-78
2022/04/13 05:55:10;;;;;;;29.40;17.35;;;11.30;99.90;;;;;;5115889;28;20094;-77
2022/04/13 05:57:36;;;;;;;29.52;17.58;;;11.40;99.90;;;;;;5114638;28;20127;-77
2022/04/13 06:00:04;;;;;;;31.27;18.83;;;11.40;99.90;;;;;;5115051;28;20119;-77
2022/04/13 06:02:30;;;;;;;22.95;16.80;;;11.50;99.90;;;;;;5115378;28;20044;-77
2022/04/13 06:04:56;;;;;;;30.30;17.67;;;11.50;99.90;;;;;;5098298;28;20052;-77
2022/04/13 06:07:21;;;;;;;34.17;18.30;;;11.60;99.90;;;;;;5117247;28;20032;-77
2022/04/13 06:09:47;;;;;;;34.05;19.67;;;11.70;99.90;;;;;;5115183;28;20430;-77
2022/04/13 06:12:24;;;;;;;34.00;18.55;;;11.80;99.90;;;;;;5114841;28;20121;-77
2022/04/13 06:14:59;;;;;;;32.10;19.23;;;11.90;99.90;;;;;;5116324;28;20040;-77
2022/04/13 06:17:25;;;;;;;32.50;17.92;;;12.00;99.90;;;;;;5114814;28;20074;-77
2022/04/13 06:19:51;;;;;;;26.13;17.27;;;12.10;99.90;;;;;;5115500;28;20074;-77
2022/04/13 06:22:17;;;;;;;32.70;16.67;;;12.10;99.90;;;;;;5116827;28;20474;-77
2022/04/13 06:24:43;;;;;;;30.77;17.38;;;12.20;99.90;;;;;;5114385;28;20414;-77
2022/04/13 06:27:08;;;;;;;39.78;17.75;;;12.30;99.90;;;;;;5116822;28;20075;-77
2022/04/13 06:29:34;;;;;;;23.52;15.88;;;12.30;99.90;;;;;;5116481;28;20065;-77
2022/04/13 06:32:00;;;;;;;26.73;15.40;;;12.40;99.90;;;;;;5114422;28;20101;-77
2022/04/13 06:34:26;;;;;;;26.40;15.18;;;12.40;99.90;;;;;;5115299;28;20044;-77
2022/04/13 06:36:51;;;;;;;27.38;16.80;;;12.40;99.90;;;;;;5116802;28;20035;-77
2022/04/13 06:39:17;;;;;;;27.00;16.17;;;12.50;99.90;;;;;;5114532;28;20066;-77
2022/04/13 06:41:43;;;;;;;25.08;16.42;;;12.50;99.90;;;;;;5115531;28;20497;-77
2022/04/13 06:44:09;;;;;;;25.85;15.93;;;12.60;99.90;;;;;;5116448;28;20559;-77
2022/04/13 06:46:36;;;;;;;23.88;16.35;;;12.60;99.90;;;;;;5114237;28;20036;-77
2022/04/13 06:49:08;;;;;;;28.05;16.60;;;12.60;99.90;;;;;;5115165;28;20064;-77
2022/04/13 06:51:34;;;;;;;29.15;15.93;;;12.70;99.90;;;;;;5113392;28;20077;-77
2022/04/13 06:54:03;;;;;;;25.15;17.25;;;12.80;99.90;;;;;;5114634;28;20398;-77
2022/04/13 06:56:29;;;;;;;29.33;16.58;;;12.80;99.90;;;;;;5114698;28;20047;-77
2022/04/13 06:58:55;;;;;;;28.35;16.38;;;12.90;99.90;;;;;;5115397;28;20051;-77
2022/04/13 07:01:21;;;;;;;28.23;17.00;;;13.00;99.90;;;;;;5115123;28;20089;-77
2022/04/13 07:03:46;;;;;;;27.98;16.35;;;13.00;99.90;;;;;;5114750;28;20492;-77
2022/04/13 07:06:15;;;;;;;22.27;16.02;;;13.10;99.90;;;;;;5115657;27;20561;-77
2022/04/13 07:08:41;;;;;;;25.15;15.20;;;13.20;99.90;;;;;;5097145;28;20089;-77
2022/04/13 07:11:07;;;;;;;25.90;16.15;;;13.30;99.90;;;;;;5115252;28;20047;-77
2022/04/13 07:13:33;;;;;;;24.38;14.82;;;13.40;99.90;;;;;;5113425;28;20050;-77
2022/04/13 07:15:59;;;;;;;24.13;14.52;;;13.50;99.90;;;;;;5115335;28;20051;-77
2022/04/13 07:18:25;;;;;;;23.48;13.35;;;13.60;99.90;;;;;;5115783;28;20039;-77
2022/04/13 07:20:51;;;;;;;21.77;13.48;;;13.60;99.90;;;;;;5113686;28;20047;-77
2022/04/13 07:23:18;;;;;;;20.95;13.20;;;13.70;99.90;;;;;;5114369;28;20075;-77
2022/04/13 07:25:44;;;;;;;17.63;12.45;;;13.70;99.90;;;;;;5115517;28;20499;-77
2022/04/13 07:28:10;;;;;;;21.25;11.90;;;13.70;99.90;;;;;;5114409;28;20075;-77
2022/04/13 07:30:36;;;;;;;21.63;12.40;;;13.80;99.90;;;;;;5113420;28;20051;-77
2022/04/13 07:33:02;;;;;;;16.80;11.90;;;13.80;99.90;;;;;;5115647;27;20495;-77
2022/04/13 07:35:29;;;;;;;20.63;12.70;;;13.90;99.90;;;;;;5117501;27;20185;-77
2022/04/13 07:37:55;;;;;;;22.55;13.48;;;14.00;99.90;;;;;;5114222;28;20054;-77
2022/04/13 07:40:21;;;;;;;24.40;12.70;;;14.00;99.90;;;;;;5114133;28;20094;-77
2022/04/13 07:42:47;;;;;;;20.50;11.60;;;14.10;99.90;;;;;;5112790;28;20076;-77
2022/04/13 07:45:13;;;;;;;20.73;11.60;;;14.10;99.90;;;;;;5113792;28;20082;-77
2022/04/13 07:47:39;;;;;;;22.88;13.07;;;14.20;99.90;;;;;;5096271;28;20047;-77
2022/04/13 07:50:12;;;;;;;20.30;11.05;;;14.30;99.90;;;;;;5098098;28;20077;-77
2022/04/13 07:52:40;;;;;;;15.82;9.98;;;14.30;99.90;;;;;;5114898;27;20052;-77
2022/04/13 07:55:07;;;;;;;18.75;11.02;;;14.40;99.90;;;;;;5113127;28;20039;-77
2022/04/13 07:57:33;;;;;;;22.98;11.38;;;14.50;99.90;;;;;;5112887;28;20585;-78
2022/04/13 07:59:59;;;;;;;18.27;10.63;;;14.50;99.90;;;;;;5114475;28;20075;-77
2022/04/13 08:02:25;;;;;;;17.95;9.50;;;14.60;99.90;;;;;;5130023;27;20144;-77
2022/04/13 08:04:51;;;;;;;19.48;10.60;;;14.60;99.90;;;;;;5114020;28;20479;-77
2022/04/13 08:07:16;;;;;;;20.25;9.25;;;14.70;99.90;;;;;;5118235;27;20048;-77
2022/04/13 08:09:42;;;;;;;17.92;9.05;;;14.70;99.90;;;;;;5112410;28;20478;-77
2022/04/13 08:12:08;;;;;;;13.13;8.35;;;14.80;99.90;;;;;;5114447;28;20051;-77
2022/04/13 08:14:34;;;;;;;18.60;9.45;;;14.90;99.90;;;;;;5113288;28;20036;-77
2022/04/13 08:17:03;;;;;;;16.73;8.93;;;15.00;99.90;;;;;;5113968;28;20104;-77
2022/04/13 08:19:30;;;;;;;16.83;8.00;;;15.10;99.90;;;;;;5113300;28;20044;-76
2022/04/13 08:21:57;;;;;;;18.92;9.60;;;15.20;99.90;;;;;;5114644;28;20039;-77
2022/04/13 08:24:22;;;;;;;20.52;9.10;;;15.30;99.90;;;;;;5112284;28;20039;-76
2022/04/13 08:26:48;;;;;;;18.98;8.60;;;15.50;99.90;;;;;;5113179;28;20449;-77
2022/04/13 08:29:14;;;;;;;14.73;7.55;;;15.60;99.90;;;;;;5113224;28;20032;-77
2022/04/13 08:31:40;;;;;;;17.73;7.97;;;15.60;99.90;;;;;;5112278;28;20055;-77
2022/04/13 08:34:06;;;;;;;12.05;6.90;;;15.60;99.90;;;;;;5113046;28;20467;-77
2022/04/13 08:36:31;;;;;;;15.82;7.68;;;15.70;99.90;;;;;;5112831;28;20048;-77
2022/04/13 08:38:57;;;;;;;18.67;7.65;;;15.70;99.90;;;;;;5113160;28;20048;-77
2022/04/13 08:41:51;;;;;;;15.35;8.38;;;15.70;99.90;;;;;;5112072;28;20095;-77
2022/04/13 08:44:24;;;;;;;12.23;7.30;;;15.70;99.90;;;;;;5113504;27;20122;-77
2022/04/13 08:46:55;;;;;;;12.40;7.07;;;15.70;99.90;;;;;;5112764;28;20104;-77
2022/04/13 08:49:21;;;;;;;15.02;8.00;;;15.70;99.90;;;;;;5112883;28;20074;-77
2022/04/13 08:51:50;;;;;;;19.08;7.78;;;15.60;99.90;;;;;;5110912;28;20494;-77
2022/04/13 08:54:22;;;;;;;16.10;9.90;;;15.60;99.90;;;;;;5114821;27;20039;-77
2022/04/13 08:56:49;;;;;;;18.33;9.55;;;15.50;99.90;;;;;;5113811;28;20036;-77
2022/04/13 08:59:18;;;;;;;14.05;8.38;;;15.50;99.90;;;;;;5111926;28;20487;-77
2022/04/13 09:02:16;;;;;;;17.20;9.13;;;15.60;99.90;;;;;;5111369;28;20043;-77
2022/04/13 09:04:44;;;;;;;17.67;8.82;;;15.70;99.90;;;;;;5095519;28;20048;-77
2022/04/13 09:07:13;;;;;;;14.90;7.72;;;15.80;99.90;;;;;;5091700;28;20391;-77
2022/04/13 09:09:46;;;;;;;12.48;7.30;;;15.90;99.90;;;;;;5109529;28;20040;-77
2022/04/13 09:12:18;;;;;;;13.93;6.65;;;16.00;99.90;;;;;;5112281;28;20096;-77
2022/04/13 09:14:45;;;;;;;14.32;7.20;;;16.00;99.90;;;;;;5111504;28;20493;-77
2022/04/13 09:17:12;;;;;;;13.45;7.10;;;16.10;99.90;;;;;;5112498;28;20056;-77
2022/04/13 09:19:38;;;;;;;18.80;7.20;;;16.20;99.90;;;;;;5112508;28;20567;-77
2022/04/13 09:22:05;;;;;;;14.10;7.00;;;16.20;99.90;;;;;;5112705;28;20069;-77
2022/04/13 09:24:32;;;;;;;13.85;6.03;;;16.30;99.90;;;;;;5111948;28;20087;-77
2022/04/13 09:27:03;;;;;;;11.38;5.90;;;16.30;99.90;;;;;;5111627;28;20052;-77
2022/04/13 09:29:29;;;;;;;15.00;6.40;;;16.40;99.90;;;;;;5113422;28;20051;-77
2022/04/13 09:31:55;;;;;;;17.67;7.70;;;16.50;99.90;;;;;;5112041;28;20371;-77
2022/04/13 09:34:21;;;;;;;14.10;6.78;;;16.50;99.90;;;;;;5111445;28;20048;-77
2022/04/13 09:36:48;;;;;;;12.00;5.60;;;16.60;99.90;;;;;;5113443;28;20036;-77
2022/04/13 09:39:15;;;;;;;11.40;5.45;;;16.60;99.90;;;;;;5113677;28;20044;-77
2022/04/13 09:41:41;;;;;;;7.28;4.80;;;16.70;99.90;;;;;;5112430;28;20039;-77
2022/04/13 09:44:15;;;;;;;13.68;5.53;;;16.80;99.90;;;;;;5112497;28;20471;-77
2022/04/13 09:46:42;;;;;;;13.53;6.33;;;16.90;99.90;;;;;;5112384;28;20051;-76
2022/04/13 09:49:17;;;;;;;8.18;4.75;;;16.90;99.90;;;;;;5112181;28;20075;-77
2022/04/13 09:51:50;;;;;;;;;;;17.00;99.90;;;;;;5112644;28;20116;-77
2022/04/13 09:54:17;;;;;;;11.50;3.85;;;16.90;99.90;;;;;;5110210;28;20390;-77
2022/04/13 09:56:47;;;;;;;9.48;4.75;;;17.00;99.90;;;;;;5111860;28;20051;-77
2022/04/13 09:59:24;;;;;;;13.13;5.05;;;17.10;99.90;;;;;;5112386;28;20038;-77
2022/04/13 10:01:50;;;;;;;12.20;4.60;;;17.30;99.90;;;;;;5112536;28;20039;-77
2022/04/13 10:04:27;;;;;;;9.38;5.40;;;17.40;99.90;;;;;;5111159;28;20048;-77
2022/04/13 10:06:53;;;;;;;16.95;6.00;;;17.50;99.90;;;;;;5112303;28;20047;-77
2022/04/13 10:09:19;;;;;;;11.80;6.07;;;17.60;99.90;;;;;;5110586;28;20131;-76
2022/04/13 10:11:58;;;;;;;12.75;5.03;;;17.70;99.90;;;;;;5093265;28;20187;-78
2022/04/13 10:14:24;;;;;;;10.38;5.43;;;18.00;99.90;;;;;;5111188;28;20039;-77
2022/04/13 10:16:52;;;;;;;10.32;4.75;;;18.10;99.90;;;;;;5111135;28;20043;-77
2022/04/13 10:19:20;;;;;;;9.63;4.95;;;18.20;99.90;;;;;;5112453;28;20455;-77
2022/04/13 10:21:52;;;;;;;11.00;5.25;;;18.40;99.90;;;;;;5113245;28;20487;-77
2022/04/13 10:24:25;;;;;;;13.05;5.20;;;18.50;99.90;;;;;;5111468;28;20040;-77
2022/04/13 10:27:07;;;;;;;9.50;4.60;;;18.50;99.90;;;;;;5115584;28;20054;-77
2022/04/13 10:29:35;;;;;;;11.05;4.88;;;18.50;99.90;;;;;;5115007;28;20551;-77
2022/04/13 10:32:11;;;;;;;10.27;4.18;;;18.30;99.90;;;;;;5116408;28;20494;-77
2022/04/13 10:34:38;;;;;;;8.40;4.10;;;18.30;99.90;;;;;;5115543;28;20043;-77
2022/04/13 10:37:06;;;;;;;10.50;4.95;;;18.30;99.90;;;;;;5114694;28;20043;-77
2022/04/13 10:39:33;;;;;;;11.93;4.93;;;18.30;99.90;;;;;;5115961;28;20097;-77
2022/04/13 10:42:05;;;;;;;11.82;5.15;;;18.40;99.90;;;;;;5116606;28;20050;-77
2022/04/13 10:44:41;;;;;;;13.05;5.13;;;18.50;99.90;;;;;;5114559;28;20482;-77
2022/04/13 10:47:09;;;;;;;11.73;4.22;;;18.50;99.90;;;;;;5116835;28;20035;-77
2022/04/13 10:49:56;;;;;;;9.25;4.03;;;18.60;99.90;;;;;;5115114;28;20052;-77
2022/04/13 10:52:47;;;;;;;11.68;4.97;;;18.60;99.90;;;;;;5115513;28;20039;-77
2022/04/13 10:55:14;;;;;;;15.10;5.30;;;18.60;99.90;;;;;;5115418;28;20044;-77
2022/04/13 10:57:46;;;;;;;9.23;5.20;;;18.50;99.90;;;;;;5115948;28;20101;-77
2022/04/13 11:00:17;;;;;;;14.00;5.80;;;18.50;99.90;;;;;;5114948;28;20040;-77
2022/04/13 11:02:52;;;;;;;10.43;4.90;;;18.50;99.90;;;;;;5098442;28;20058;-77
2022/04/13 11:05:18;;;;;;;;;;;18.40;99.90;;;;;;5114609;28;20079;-77
2022/04/13 11:07:44;;;;;;;14.43;6.18;;;18.30;99.90;;;;;;5115168;28;19920;-77
2022/04/13 11:10:17;;;;;;;14.05;6.78;;;18.20;99.90;;;;;;5116208;28;20047;-77
2022/04/13 11:12:45;;;;;;;18.13;6.20;;;18.10;99.90;;;;;;5113883;28;20062;-77
2022/04/13 11:15:11;;;;;;;17.42;6.22;;;18.10;99.90;;;;;;5115185;28;20057;-77
2022/04/13 11:17:41;;;;;;;15.85;6.00;;;18.20;99.90;;;;;;5115055;28;20118;-77
2022/04/13 11:20:21;;;;;;;9.90;5.72;;;18.40;99.90;;;;;;5113758;28;20562;-77
2022/04/13 11:23:11;;;;;;;13.30;6.05;;;18.50;99.90;;;;;;5114732;28;20047;-77
2022/04/13 11:25:50;;;;;;;11.68;5.72;;;18.50;99.90;;;;;;5115484;28;20046;-77
2022/04/13 11:28:34;;;;;;;11.63;5.28;;;18.50;99.90;;;;;;5115740;28;20391;-77
2022/04/13 11:31:07;;;;;;;13.02;5.78;;;18.40;99.90;;;;;;5115693;28;20126;-77
2022/04/13 11:33:56;;;;;;;14.93;4.82;;;18.40;99.90;;;;;;5113815;28;20047;-77
2022/04/13 11:36:24;;;;;;;13.20;5.47;;;18.30;99.90;;;;;;5114054;28;20040;-77
2022/04/13 11:38:52;;;;;;;11.85;4.60;;;18.20;99.90;;;;;;5097482;28;20054;-77
2022/04/13 11:41:18;;;;;;;15.57;5.18;;;18.10;99.90;;;;;;5113631;28;20111;-77
2022/04/13 11:43:45;;;;;;;12.00;4.60;;;17.90;99.90;;;;;;5115626;28;20048;-77
2022/04/13 11:46:39;;;;;;;16.13;5.30;;;17.80;99.90;;;;;;5115612;28;20044;-77
2022/04/13 11:49:10;;;;;;;13.18;5.35;;;17.70;99.90;;;;;;5115169;28;20062;-77
2022/04/13 11:51:36;;;;;;;15.73;6.30;;;17.70;99.90;;;;;;5115358;28;20056;-77
2022/04/13 11:54:07;;;;;;;16.17;5.20;;;17.60;99.90;;;;;;5113224;28;20346;-77
2022/04/13 11:56:35;;;;;;;13.30;5.35;;;17.50;99.90;;;;;;5097082;28;20096;-77
2022/04/13 11:59:01;;;;;;;13.82;5.47;;;17.40;99.90;;;;;;5114309;28;20048;-77
2022/04/13 12:01:27;;;;;;;12.82;4.70;;;17.40;99.90;;;;;;5113092;28;20506;-78
2022/04/13 12:03:55;;;;;;;11.35;4.47;;;17.30;99.90;;;;;;5114015;28;20047;-77
2022/04/13 12:06:24;;;;;;;21.98;6.57;;;17.40;99.90;;;;;;5114976;28;20528;-77
2022/04/13 12:08:55;;;;;;;12.25;5.20;;;17.30;99.90;;;;;;5114229;28;20070;-77
2022/04/13 12:11:37;;;;;;;17.50;6.60;;;17.30;99.90;;;;;;5113736;28;20497;-77
2022/04/13 12:14:03;;;;;;;17.88;6.40;;;17.30;99.90;;;;;;5114801;28;20127;-77
2022/04/13 12:16:33;;;;;;;20.42;7.22;;;17.20;99.90;;;;;;5078932;28;20126;-77
2022/04/13 12:19:07;;;;;;;15.77;5.80;;;17.10;99.90;;;;;;5113491;28;20131;-77
2022/04/13 12:21:36;;;;;;;19.85;7.93;;;17.10;99.90;;;;;;5114856;28;20043;-77
2022/04/13 12:24:04;;;;;;;18.67;7.20;;;17.00;99.90;;;;;;5113777;28;20097;-77
2022/04/13 12:26:31;;;;;;;17.77;7.63;;;17.00;99.90;;;;;;5114572;28;20047;-77
2022/04/13 12:28:57;;;;;;;16.27;7.65;;;16.90;99.90;;;;;;5112946;28;20039;-77
2022/04/13 12:31:27;;;;;;;19.73;7.75;;;16.90;99.90;;;;;;5114165;28;20363;-77
2022/04/13 12:33:58;;;;;;;16.27;7.85;;;16.80;99.90;;;;;;5113608;28;20047;-77
2022/04/13 12:36:24;;;;;;;16.58;6.97;;;16.80;99.90;;;;;;5112603;28;20042;-77